Time;durP1;ratioP1;P1;durP2;ratioP2;P2;SDS_P1;SDS_P2;PMS_P1;PMS_P2;Temp;Humidity;BMP_temperature;BMP_pressure;BME280_temperature;BME280_humidity;BME280_pressure;Samples;Min_cycle;Max_cycle;Signal;HPM_P1;HPM_P2
2022/04/18 00:01:47;;;;;;;7.03;3.20;;;;;;;;;;10440342;28;20116;-69
2022/04/18 00:06:52;;;;;;;5.35;3.08;;;;;;;;;;10421657;28;20067;-68
2022/04/18 00:11:55;;;;;;;8.25;3.35;;;;;;;;;;10422433;28;20107;-68
2022/04/18 00:16:58;;;;;;;8.70;3.33;;;;;;;;;;10441032;28;20530;-68
2022/04/18 00:22:02;;;;;;;9.77;3.67;;;;;;;;;;10420395;28;20044;-68
2022/04/18 00:27:05;;;;;;;9.15;3.45;;;;;;;;;;10421058;28;20182;-68
2022/04/18 00:32:09;;;;;;;9.43;3.43;;;;;;;;;;10412000;28;20387;-69
2022/04/18 00:37:14;;;;;;;7.60;3.08;;;;;;;;;;10417083;28;20471;-69
2022/04/18 00:42:17;;;;;;;5.60;2.60;;;;;;;;;;10421588;28;20300;-69
2022/04/18 00:47:19;;;;;;;7.10;3.53;;;;;;;;;;10423089;28;20470;-68
2022/04/18 00:52:24;;;;;;;6.23;2.73;;;;;;;;;;10442350;28;20044;-68
2022/04/18 00:57:27;;;;;;;5.37;3.00;;;;;;;;;;10427547;28;20067;-69
2022/04/18 01:02:30;;;;;;;4.87;2.27;;;;;;;;;;10426273;28;20071;-68
2022/04/18 01:07:35;;;;;;;6.60;3.13;;;;;;;;;;10446868;28;20033;-67
2022/04/18 01:12:41;;;;;;;6.83;3.03;;;;;;;;;;10421983;28;20044;-68
2022/04/18 01:17:55;;;;;;;4.70;2.63;;;;;;;;;;10445887;28;20395;-69
2022/04/18 01:23:05;;;;;;;9.57;3.20;;;;;;;;;;10424443;28;20037;-70
2022/04/18 01:33:49;;;;;;;6.23;3.27;;;;;;;;;;10438478;28;20048;-70
2022/04/18 01:38:53;;;;;;;7.07;3.60;;;;;;;;;;10444598;28;20033;-67
2022/04/18 01:43:57;;;;;;;7.60;3.40;;;;;;;;;;10425838;28;20048;-69
2022/04/18 01:49:00;;;;;;;5.03;3.40;;;;;;;;;;10424371;28;20068;-66
2022/04/18 01:54:04;;;;;;;5.30;2.73;;;;;;;;;;10443881;28;20044;-68
2022/04/18 01:59:08;;;;;;;9.23;3.70;;;;;;;;;;10427191;28;20068;-69
2022/04/18 02:04:11;;;;;;;7.27;3.50;;;;;;;;;;10440165;28;20128;-68
2022/04/18 02:09:16;;;;;;;7.30;2.97;;;;;;;;;;10427020;28;20390;-68
2022/04/18 02:14:19;;;;;;;5.90;3.30;;;;;;;;;;10445917;28;20114;-69
2022/04/18 02:19:21;;;;;;;4.80;3.13;;;;;;;;;;10442458;28;20033;-69
2022/04/18 02:24:26;;;;;;;7.07;3.38;;;;;;;;;;10425645;28;20044;-69
2022/04/18 02:29:30;;;;;;;5.20;2.80;;;;;;;;;;10441742;28;20067;-69
2022/04/18 02:34:34;;;;;;;5.63;2.45;;;;;;;;;;10440950;28;20045;-68
2022/04/18 02:39:38;;;;;;;5.10;3.13;;;;;;;;;;10425380;28;20094;-69
2022/04/18 02:44:42;;;;;;;5.93;3.17;;;;;;;;;;10418378;28;20068;-69
2022/04/18 02:49:45;;;;;;;7.10;3.17;;;;;;;;;;10423416;28;20095;-69
2022/04/18 02:54:49;;;;;;;6.50;2.90;;;;;;;;;;10427956;28;20091;-69
2022/04/18 02:59:53;;;;;;;3.43;1.83;;;;;;;;;;10441738;28;20404;-69
2022/04/18 03:04:55;;;;;;;7.63;2.70;;;;;;;;;;10419737;28;20122;-69
2022/04/18 03:09:59;;;;;;;6.93;3.17;;;;;;;;;;10439901;28;20044;-69
2022/04/18 03:15:03;;;;;;;7.88;3.45;;;;;;;;;;10439255;28;20032;-68
2022/04/18 03:20:06;;;;;;;7.23;3.03;;;;;;;;;;10440777;28;20033;-69
2022/04/18 03:25:11;;;;;;;4.70;2.83;;;;;;;;;;10424233;28;20348;-69
2022/04/18 03:30:13;;;;;;;6.05;2.70;;;;;;;;;;10424799;28;20052;-68
2022/04/18 03:35:16;;;;;;;6.13;2.97;;;;;;;;;;10424546;28;20082;-68
2022/04/18 03:40:20;;;;;;;9.40;3.23;;;;;;;;;;10420889;28;20098;-69
2022/04/18 03:45:23;;;;;;;5.93;1.80;;;;;;;;;;10422972;28;20119;-69
2022/04/18 03:50:27;;;;;;;7.67;3.30;;;;;;;;;;10422147;28;20056;-68
2022/04/18 03:55:31;;;;;;;10.73;3.40;;;;;;;;;;10440971;28;20049;-68
2022/04/18 04:00:35;;;;;;;;;;;;;;;;;;10440032;28;20128;-68
2022/04/18 04:05:37;;;;;;;8.93;3.97;;;;;;;;;;10417436;28;19924;-68
2022/04/18 04:10:42;;;;;;;2.80;1.70;;;;;;;;;;10442384;28;20099;-68
2022/04/18 04:15:45;;;;;;;7.40;3.73;;;;;;;;;;10422069;28;20053;-70
2022/04/18 04:20:48;;;;;;;6.00;2.97;;;;;;;;;;10437963;28;20044;-67
2022/04/18 04:25:53;;;;;;;8.00;3.80;;;;;;;;;;10426112;28;20041;-68
2022/04/18 04:30:55;;;;;;;7.35;3.38;;;;;;;;;;10444816;28;20102;-68
2022/04/18 04:35:58;;;;;;;6.50;3.00;;;;;;;;;;10428491;28;20506;-68
2022/04/18 04:41:03;;;;;;;8.47;3.70;;;;;;;;;;10446679;28;20036;-68
2022/04/18 04:46:06;;;;;;;9.40;3.30;;;;;;;;;;10427544;28;20497;-70
2022/04/18 04:51:08;;;;;;;9.90;3.60;;;;;;;;;;10425158;28;20394;-67
2022/04/18 04:56:13;;;;;;;6.53;3.20;;;;;;;;;;10446979;28;20433;-68
2022/04/18 05:01:15;;;;;;;;;;;;;;;;;;10428503;28;20037;-68
2022/04/18 05:06:18;;;;;;;7.70;2.33;;;;;;;;;;10427230;28;19924;-68
2022/04/18 05:11:22;;;;;;;5.13;2.83;;;;;;;;;;10426047;28;20087;-67
2022/04/18 05:16:25;;;;;;;9.77;3.08;;;;;;;;;;10429121;28;20534;-68
2022/04/18 05:21:28;;;;;;;5.93;3.33;;;;;;;;;;10444679;28;20037;-68
2022/04/18 05:26:32;;;;;;;8.73;3.87;;;;;;;;;;10446633;28;20103;-69
2022/04/18 05:31:35;;;;;;;7.80;3.30;;;;;;;;;;10445065;28;20038;-68
2022/04/18 05:36:38;;;;;;;7.67;3.17;;;;;;;;;;10443818;28;20040;-69
2022/04/18 05:41:42;;;;;;;7.93;3.73;;;;;;;;;;10429102;28;20057;-69
2022/04/18 05:46:45;;;;;;;7.93;3.40;;;;;;;;;;10427044;28;20079;-68
2022/04/18 05:51:48;;;;;;;6.73;2.70;;;;;;;;;;10441708;28;20087;-68
2022/04/18 05:56:52;;;;;;;6.03;3.43;;;;;;;;;;10426401;28;20420;-68
2022/04/18 06:01:56;;;;;;;7.27;3.43;;;;;;;;;;10417013;28;20029;-68
2022/04/18 06:06:59;;;;;;;7.53;3.30;;;;;;;;;;10444508;28;20040;-69
2022/04/18 06:12:03;;;;;;;7.53;3.40;;;;;;;;;;10439449;28;20075;-69
2022/04/18 06:17:06;;;;;;;6.05;3.47;;;;;;;;;;10441793;28;20409;-69
2022/04/18 06:22:09;;;;;;;4.47;1.93;;;;;;;;;;10424715;28;20083;-69
2022/04/18 06:27:13;;;;;;;3.40;2.10;;;;;;;;;;10441953;28;20052;-69
2022/04/18 06:32:16;;;;;;;6.47;2.28;;;;;;;;;;10431227;28;20037;-69
2022/04/18 06:37:20;;;;;;;4.10;1.80;;;;;;;;;;10448072;28;20545;-69
2022/04/18 06:42:24;;;;;;;7.57;3.35;;;;;;;;;;10442503;28;20040;-68
2022/04/18 06:47:27;;;;;;;5.18;2.65;;;;;;;;;;10425275;28;20056;-69
2022/04/18 06:52:37;;;;;;;5.18;2.28;;;;;;;;;;10435273;28;20099;-69
2022/04/18 06:57:41;;;;;;;3.38;2.03;;;;;;;;;;10425310;28;20064;-69
2022/04/18 07:02:45;;;;;;;3.45;2.00;;;;;;;;;;10436849;28;20037;-68
2022/04/18 07:07:47;;;;;;;4.90;2.33;;;;;;;;;;10425828;28;20048;-68
2022/04/18 07:12:51;;;;;;;4.18;2.50;;;;;;;;;;10420600;28;20041;-70
2022/04/18 07:17:54;;;;;;;7.47;3.17;;;;;;;;;;10441791;28;20037;-69
2022/04/18 07:22:57;;;;;;;4.68;2.53;;;;;;;;;;10442025;28;20090;-68
2022/04/18 07:28:03;;;;;;;5.83;3.87;;;;;;;;;;10443190;28;20033;-67
2022/04/18 07:33:06;;;;;;;4.90;3.28;;;;;;;;;;10434673;28;20400;-67
2022/04/18 07:43:30;;;;;;;5.35;3.30;;;;;;;;;;10443173;28;20113;-73
2022/04/18 07:48:33;;;;;;;3.80;2.85;;;;;;;;;;10423014;28;20045;-73
2022/04/18 07:53:36;;;;;;;3.38;2.60;;;;;;;;;;10436195;28;20041;-72
2022/04/18 07:58:40;;;;;;;4.25;2.60;;;;;;;;;;10433980;28;20057;-72
2022/04/18 08:03:43;;;;;;;3.53;2.60;;;;;;;;;;10415606;28;20037;-72
2022/04/18 08:08:46;;;;;;;4.53;2.83;;;;;;;;;;10416196;28;20153;-73
2022/04/18 08:13:51;;;;;;;5.00;2.70;;;;;;;;;;10414392;28;20045;-73
2022/04/18 08:18:55;;;;;;;2.92;2.00;;;;;;;;;;10413068;28;20480;-73
2022/04/18 08:23:58;;;;;;;3.25;2.40;;;;;;;;;;10431656;28;20044;-73
2022/04/18 08:29:06;;;;;;;4.38;2.70;;;;;;;;;;10413624;28;20071;-73
2022/04/18 08:34:09;;;;;;;3.55;2.75;;;;;;;;;;10412493;28;20073;-74
2022/04/18 08:39:12;;;;;;;3.40;2.85;;;;;;;;;;10420942;28;20171;-72
2022/04/18 08:44:18;;;;;;;3.72;2.75;;;;;;;;;;10416085;28;20037;-73
2022/04/18 08:54:48;;;;;;;5.15;3.00;;;;;;;;;;10397117;28;20053;-73
2022/04/18 08:59:57;;;;;;;3.22;2.40;;;;;;;;;;10429821;28;20083;-72
2022/04/18 09:05:00;;;;;;;3.97;2.45;;;;;;;;;;10412532;28;20352;-72
2022/04/18 09:10:03;;;;;;;3.78;2.63;;;;;;;;;;10416321;28;20036;-72
2022/04/18 09:15:09;;;;;;;3.30;2.60;;;;;;;;;;10410453;28;20048;-72
2022/04/18 09:20:13;;;;;;;3.70;2.90;;;;;;;;;;10422966;28;20041;-72
2022/04/18 09:25:17;;;;;;;4.63;3.15;;;;;;;;;;10423637;28;20060;-71
2022/04/18 09:30:21;;;;;;;3.92;2.85;;;;;;;;;;10421032;28;20083;-73
2022/04/18 09:35:26;;;;;;;3.60;2.90;;;;;;;;;;10419386;28;20049;-72
2022/04/18 09:40:31;;;;;;;4.38;3.10;;;;;;;;;;10421227;28;20387;-73
2022/04/18 09:45:37;;;;;;;3.28;2.95;;;;;;;;;;10421474;28;20029;-73
2022/04/18 09:56:00;;;;;;;4.47;3.10;;;;;;;;;;10420637;28;20133;-73
2022/04/18 10:01:07;;;;;;;3.53;3.22;;;;;;;;;;10419055;28;20394;-73
2022/04/18 10:06:11;;;;;;;3.60;3.10;;;;;;;;;;10435652;28;20033;-73
2022/04/18 10:11:14;;;;;;;3.40;3.10;;;;;;;;;;10421881;28;20064;-73
2022/04/18 10:16:20;;;;;;;4.35;3.08;;;;;;;;;;10421446;28;20119;-71
2022/04/18 10:21:27;;;;;;;4.47;3.97;;;;;;;;;;10418904;28;20061;-73
2022/04/18 10:26:45;;;;;;;3.78;2.92;;;;;;;;;;10416421;28;20045;-73
2022/04/18 10:31:52;;;;;;;3.47;2.77;;;;;;;;;;10408133;28;20124;-73
2022/04/18 10:36:55;;;;;;;3.95;2.90;;;;;;;;;;10419848;28;20051;-73
2022/04/18 10:41:59;;;;;;;4.65;2.90;;;;;;;;;;10417366;28;20036;-73
2022/04/18 10:47:04;;;;;;;4.13;2.67;;;;;;;;;;10420315;28;20033;-73
2022/04/18 10:52:09;;;;;;;2.90;2.53;;;;;;;;;;10419475;28;20036;-73
2022/04/18 10:57:12;;;;;;;3.65;2.92;;;;;;;;;;10417472;28;20574;-74
2022/04/18 11:02:31;;;;;;;5.25;2.90;;;;;;;;;;10418507;28;20042;-73
2022/04/18 11:07:39;;;;;;;4.00;2.72;;;;;;;;;;10420390;28;20063;-73
2022/04/18 11:12:44;;;;;;;2.97;2.58;;;;;;;;;;10412886;28;20034;-73
2022/04/18 11:17:46;;;;;;;5.13;3.63;;;;;;;;;;10418539;28;20041;-73
2022/04/18 11:23:04;;;;;;;3.17;2.60;;;;;;;;;;10417714;28;20053;-73
2022/04/18 11:28:09;;;;;;;3.63;2.85;;;;;;;;;;10428211;28;20430;-72
2022/04/18 11:33:15;;;;;;;3.97;2.42;;;;;;;;;;10416247;28;20312;-74
2022/04/18 11:38:18;;;;;;;3.42;2.70;;;;;;;;;;10418788;28;20458;-73
2022/04/18 11:43:22;;;;;;;4.20;2.33;;;;;;;;;;10413093;28;20509;-72
2022/04/18 11:48:25;;;;;;;3.60;2.60;;;;;;;;;;10415643;28;20056;-73
2022/04/18 11:53:31;;;;;;;3.08;2.25;;;;;;;;;;10418275;28;20033;-73
2022/04/18 11:58:37;;;;;;;3.47;2.47;;;;;;;;;;10415468;28;20050;-74
2022/04/18 12:09:00;;;;;;;;;;;;;;;;;;10414715;28;20045;-71
2022/04/18 12:14:05;;;;;;;3.97;2.22;;;;;;;;;;10413413;28;19921;-73
2022/04/18 12:19:12;;;;;;;3.58;2.30;;;;;;;;;;10415454;28;20037;-73
2022/04/18 12:24:14;;;;;;;2.97;2.00;;;;;;;;;;10415572;28;20413;-73
2022/04/18 12:29:20;;;;;;;2.97;2.10;;;;;;;;;;10417632;28;20038;-73
2022/04/18 12:34:23;;;;;;;2.97;1.98;;;;;;;;;;10411077;28;20143;-74
2022/04/18 12:39:27;;;;;;;2.30;1.67;;;;;;;;;;10414339;28;20047;-73
2022/04/18 12:44:31;;;;;;;3.83;2.25;;;;;;;;;;10414310;28;20092;-75
2022/04/18 12:49:34;;;;;;;3.90;2.08;;;;;;;;;;10416565;28;20033;-74
2022/04/18 12:54:45;;;;;;;3.67;1.98;;;;;;;;;;10423196;28;20065;-74
2022/04/18 12:59:55;;;;;;;10.18;2.40;;;;;;;;;;10438487;28;20041;-74
2022/04/18 13:05:01;;;;;;;2.55;1.90;;;;;;;;;;10435385;28;20552;-73
2022/04/18 13:10:05;;;;;;;3.35;2.00;;;;;;;;;;10420986;28;20453;-74
2022/04/18 13:15:11;;;;;;;3.13;1.90;;;;;;;;;;10417951;28;20131;-74
2022/04/18 13:20:14;;;;;;;3.80;1.98;;;;;;;;;;10422636;28;20037;-74
2022/04/18 13:25:17;;;;;;;2.95;1.90;;;;;;;;;;10422169;28;20042;-71
2022/04/18 13:30:28;;;;;;;2.30;1.65;;;;;;;;;;10418326;28;20037;-73
2022/04/18 13:35:31;;;;;;;1.92;1.60;;;;;;;;;;10419724;28;20038;-73
2022/04/18 13:40:34;;;;;;;2.50;1.80;;;;;;;;;;10435151;22;20120;-70
2022/04/18 13:45:39;;;;;;;2.42;1.73;;;;;;;;;;10405463;28;20049;-70
2022/04/18 13:50:42;;;;;;;3.15;1.73;;;;;;;;;;10403687;28;20030;-72
2022/04/18 13:55:45;;;;;;;2.97;2.05;;;;;;;;;;10388458;28;20045;-72
2022/04/18 14:00:48;;;;;;;;;;;;;;;;;;10403664;28;20065;-71
2022/04/18 14:05:52;;;;;;;2.20;1.70;;;;;;;;;;10391189;28;19972;-71
2022/04/18 14:10:55;;;;;;;3.63;1.83;;;;;;;;;;10387740;28;20037;-72
2022/04/18 14:21:21;;;;;;;9.07;2.05;;;;;;;;;;10403397;28;20429;-70
2022/04/18 14:26:24;;;;;;;3.20;1.98;;;;;;;;;;10405233;28;20045;-71
2022/04/18 14:31:26;;;;;;;;;;;;;;;;;;10404274;28;20702;-70
2022/04/18 14:36:30;;;;;;;1.80;1.58;;;;;;;;;;10385681;28;19921;-71
2022/04/18 14:41:33;;;;;;;3.22;1.85;;;;;;;;;;10400028;28;20481;-71
2022/04/18 14:46:36;;;;;;;3.08;1.65;;;;;;;;;;10384884;28;20064;-70
2022/04/18 14:51:43;;;;;;;2.85;1.80;;;;;;;;;;10400358;28;20095;-71
2022/04/18 14:56:46;;;;;;;2.50;1.67;;;;;;;;;;10383464;28;20147;-70
2022/04/18 15:01:49;;;;;;;1.85;1.52;;;;;;;;;;10384893;28;20076;-71
2022/04/18 15:06:52;;;;;;;;;;;;;;;;;;10405550;28;20128;-71
2022/04/18 15:11:57;;;;;;;3.97;2.28;;;;;;;;;;10382386;28;19986;-70
2022/04/18 15:17:00;;;;;;;4.15;2.60;;;;;;;;;;10385247;28;20329;-72
2022/04/18 15:22:04;;;;;;;3.38;1.52;;;;;;;;;;10399702;28;20045;-70
2022/04/18 15:27:08;;;;;;;2.55;1.73;;;;;;;;;;10382843;28;20069;-70
2022/04/18 15:32:11;;;;;;;4.85;1.70;;;;;;;;;;10400930;28;20048;-70
2022/04/18 15:37:16;;;;;;;3.72;1.13;;;;;;;;;;10401820;28;20068;-70
2022/04/18 15:42:18;;;;;;;;;;;;;;;;;;10398026;28;20557;-71
2022/04/18 15:47:23;;;;;;;1.98;1.23;;;;;;;;;;10403867;28;19921;-71
2022/04/18 15:52:27;;;;;;;3.28;1.17;;;;;;;;;;10397721;28;20099;-70
2022/04/18 15:57:30;;;;;;;4.13;1.48;;;;;;;;;;10397742;28;20064;-70
2022/04/18 16:02:34;;;;;;;2.45;1.50;;;;;;;;;;10401300;28;20041;-70
2022/04/18 16:07:42;;;;;;;3.63;1.63;;;;;;;;;;10401987;28;20458;-72
2022/04/18 16:12:44;;;;;;;2.90;1.30;;;;;;;;;;10398741;28;20321;-72
2022/04/18 16:17:49;;;;;;;1.57;1.23;;;;;;;;;;10384433;28;20097;-71
2022/04/18 16:22:52;;;;;;;2.63;1.38;;;;;;;;;;10400625;28;20029;-71
2022/04/18 16:27:55;;;;;;;2.83;1.67;;;;;;;;;;10408502;28;20342;-71
2022/04/18 16:33:19;;;;;;;3.60;1.73;;;;;;;;;;10408234;28;20064;-70
2022/04/18 16:38:22;;;;;;;1.70;1.33;;;;;;;;;;10414466;28;20042;-71
2022/04/18 16:48:47;;;;;;;3.53;1.50;;;;;;;;;;10408757;28;20087;-70
2022/04/18 16:53:51;;;;;;;2.65;1.67;;;;;;;;;;10415686;28;20034;-70
2022/04/18 16:58:59;;;;;;;2.67;1.60;;;;;;;;;;10416301;28;20568;-70
2022/04/18 17:04:04;;;;;;;2.88;1.50;;;;;;;;;;10415261;28;20466;-71
2022/04/18 17:09:07;;;;;;;2.17;1.58;;;;;;;;;;10400551;28;20762;-71
2022/04/18 17:14:11;;;;;;;2.28;1.45;;;;;;;;;;10399269;28;20037;-70
2022/04/18 17:19:15;;;;;;;2.97;1.53;;;;;;;;;;10416093;28;20049;-70
2022/04/18 17:24:20;;;;;;;2.75;1.25;;;;;;;;;;10389489;28;20349;-70
2022/04/18 17:29:23;;;;;;;3.58;1.55;;;;;;;;;;10406256;28;20068;-70
2022/04/18 17:34:28;;;;;;;2.15;1.27;;;;;;;;;;10404697;28;20084;-70
2022/04/18 17:39:31;;;;;;;1.85;1.23;;;;;;;;;;10389292;28;20444;-71
2022/04/18 17:44:34;;;;;;;2.33;1.27;;;;;;;;;;10405730;28;20049;-71
2022/04/18 17:49:45;;;;;;;2.50;1.40;;;;;;;;;;10404799;28;20045;-70
2022/04/18 18:00:10;;;;;;;2.72;1.33;;;;;;;;;;10385565;28;20088;-71
2022/04/18 18:05:14;;;;;;;2.28;1.27;;;;;;;;;;10389867;28;20048;-70
2022/04/18 18:10:18;;;;;;;1.92;1.33;;;;;;;;;;10405009;28;20140;-71
2022/04/18 18:15:21;;;;;;;3.67;1.40;;;;;;;;;;10404450;28;20048;-71
2022/04/18 18:20:26;;;;;;;2.30;1.30;;;;;;;;;;10404515;28;20406;-71
2022/04/18 18:25:29;;;;;;;2.45;1.45;;;;;;;;;;10404038;28;20087;-71
2022/04/18 18:30:33;;;;;;;2.27;1.20;;;;;;;;;;10402673;28;20044;-70
2022/04/18 18:35:39;;;;;;;1.83;1.40;;;;;;;;;;10403580;28;20405;-70
2022/04/18 18:40:42;;;;;;;3.83;1.85;;;;;;;;;;10405739;28;20041;-70
2022/04/18 18:45:45;;;;;;;2.60;1.65;;;;;;;;;;10405359;28;20065;-71
2022/04/18 18:56:10;;;;;;;3.72;1.27;;;;;;;;;;10401865;28;20072;-70
2022/04/18 19:01:14;;;;;;;3.83;1.80;;;;;;;;;;10403430;28;20042;-72
2022/04/18 19:06:18;;;;;;;3.17;1.95;;;;;;;;;;10385028;28;20045;-71
2022/04/18 19:11:25;;;;;;;1.95;1.38;;;;;;;;;;10399019;28;20056;-69
2022/04/18 19:16:28;;;;;;;3.55;1.58;;;;;;;;;;10382552;28;20135;-70
2022/04/18 19:26:49;;;;;;;4.45;1.73;;;;;;;;;;10397075;28;20107;-70
2022/04/18 19:31:53;;;;;;;5.63;1.77;;;;;;;;;;10401130;28;20046;-71
2022/04/18 19:36:57;;;;;;;3.70;2.08;;;;;;;;;;10400772;28;20130;-72
2022/04/18 19:42:01;;;;;;;4.40;2.00;;;;;;;;;;10411715;23;20041;-73
2022/04/18 19:47:04;;;;;;;4.77;2.27;;;;;;;;;;10398149;28;20170;-73
2022/04/18 19:52:09;;;;;;;4.47;1.90;;;;;;;;;;10376055;28;20128;-71
2022/04/18 19:57:12;;;;;;;3.20;1.80;;;;;;;;;;10407276;28;20072;-73
2022/04/18 20:02:16;;;;;;;4.60;1.73;;;;;;;;;;10401944;28;20048;-70
2022/04/18 20:07:25;;;;;;;1.95;1.30;;;;;;;;;;10398611;28;20474;-72
2022/04/18 20:12:32;;;;;;;3.42;1.60;;;;;;;;;;10383753;28;20038;-73
2022/04/18 20:17:36;;;;;;;2.13;1.45;;;;;;;;;;10398724;28;20038;-71
2022/04/18 20:22:41;;;;;;;7.68;2.50;;;;;;;;;;10382081;28;20496;-72
2022/04/18 20:27:44;;;;;;;5.35;2.20;;;;;;;;;;10401449;28;20390;-72
2022/04/18 20:32:47;;;;;;;10.80;2.13;;;;;;;;;;10381961;28;20045;-72
2022/04/18 20:37:55;;;;;;;5.45;2.55;;;;;;;;;;10399871;28;20041;-73
2022/04/18 20:42:59;;;;;;;4.28;1.85;;;;;;;;;;10383206;28;20117;-71
2022/04/18 20:48:02;;;;;;;3.43;1.67;;;;;;;;;;10399779;28;20087;-72
2022/04/18 20:58:35;;;;;;;4.70;2.33;;;;;;;;;;10398226;28;20530;-72
2022/04/18 21:03:38;;;;;;;4.85;2.13;;;;;;;;;;10397533;28;20099;-73
2022/04/18 21:08:43;;;;;;;4.00;2.00;;;;;;;;;;10400237;28;20041;-73
2022/04/18 21:13:46;;;;;;;4.80;2.10;;;;;;;;;;10404580;28;20504;-73
2022/04/18 21:18:50;;;;;;;4.10;1.90;;;;;;;;;;10391763;28;20045;-72
2022/04/18 21:23:54;;;;;;;4.18;2.03;;;;;;;;;;10407530;28;20492;-73
2022/04/18 21:28:58;;;;;;;3.92;1.90;;;;;;;;;;10388254;28;20080;-71
2022/04/18 21:34:01;;;;;;;;;;;;;;;;;;10405985;28;20476;-71
2022/04/18 21:39:06;;;;;;;2.13;1.27;;;;;;;;;;10391222;28;20016;-71
2022/04/18 21:44:10;;;;;;;4.95;1.13;;;;;;;;;;10404111;28;20037;-72
2022/04/18 21:49:15;;;;;;;5.20;1.90;;;;;;;;;;10404409;28;20042;-72
2022/04/18 21:54:19;;;;;;;1.20;0.90;;;;;;;;;;10405349;28;20076;-72
2022/04/18 21:59:23;;;;;;;1.48;0.85;;;;;;;;;;10404408;28;20042;-72
2022/04/18 22:04:26;;;;;;;4.55;1.95;;;;;;;;;;10386599;28;20101;-72
2022/04/18 22:09:31;;;;;;;6.82;3.30;;;;;;;;;;10383640;28;20064;-72
2022/04/18 22:14:34;;;;;;;2.58;1.40;;;;;;;;;;10404438;28;20390;-73
2022/04/18 22:25:15;;;;;;;3.47;1.55;;;;;;;;;;10226158;28;20047;-73
2022/04/18 22:30:18;;;;;;;1.42;0.65;;;;;;;;;;10364049;28;20573;-73
2022/04/18 22:35:21;;;;;;;3.20;1.47;;;;;;;;;;10403067;28;20042;-72
2022/04/18 22:40:26;;;;;;;1.92;1.17;;;;;;;;;;10403336;28;20048;-73
2022/04/18 22:45:31;;;;;;;3.47;1.70;;;;;;;;;;10403515;28;20049;-73
2022/04/18 22:50:34;;;;;;;3.63;1.67;;;;;;;;;;10400532;28;20038;-72
2022/04/18 22:55:38;;;;;;;3.22;1.80;;;;;;;;;;10402236;28;20033;-73
2022/04/18 23:00:42;;;;;;;2.38;1.35;;;;;;;;;;10402027;28;20041;-72
2022/04/18 23:05:58;;;;;;;2.97;1.60;;;;;;;;;;10401291;28;20092;-72
2022/04/18 23:11:02;;;;;;;2.55;0.60;;;;;;;;;;10383804;28;20509;-72
2022/04/18 23:16:07;;;;;;;1.70;0.70;;;;;;;;;;10401776;28;20034;-72
2022/04/18 23:21:10;;;;;;;2.60;1.13;;;;;;;;;;10401801;28;20068;-72
2022/04/18 23:26:14;;;;;;;4.97;1.58;;;;;;;;;;10400649;28;20397;-72
2022/04/18 23:31:17;;;;;;;;;;;;;;;;;;10385035;28;20435;-72
2022/04/18 23:36:20;;;;;;;3.50;1.90;;;;;;;;;;10399234;28;19960;-72
2022/04/18 23:46:47;;;;;;;0.45;0.45;;;;;;;;;;10398870;28;20038;-72
2022/04/18 23:51:50;;;;;;;0.98;0.63;;;;;;;;;;10400227;28;20482;-72
2022/04/18 23:56:56;;;;;;;2.30;1.70;;;;;;;;;;10399670;28;20044;-71
